createdAt,value
2018-01-18T00:01:19.672Z,4.03
2018-01-18T00:03:47.716Z,3.20
2018-01-18T00:09:06.195Z,4.33
2018-01-18T00:11:41.124Z,3.20
2018-01-18T00:14:14.955Z,2.60
2018-01-18T00:16:45.693Z,2.57
2018-01-18T00:19:17.287Z,3.17
2018-01-18T00:21:48.522Z,2.43
2018-01-18T00:24:19.233Z,4.00
2018-01-18T00:26:51.934Z,4.00
2018-01-18T00:29:20.925Z,5.47
2018-01-18T00:31:57.063Z,3.07
2018-01-18T00:34:27.112Z,2.33
2018-01-18T00:37:05.057Z,2.37
2018-01-18T00:39:33.958Z,2.30
2018-01-18T00:42:06.774Z,2.40
2018-01-18T00:44:36.973Z,2.57
2018-01-18T00:47:05.741Z,2.17
2018-01-18T00:49:35.053Z,2.30
2018-01-18T00:52:04.059Z,2.37
2018-01-18T00:54:32.116Z,3.17
2018-01-18T00:57:00.641Z,2.20
2018-01-18T00:59:31.072Z,3.13
2018-01-18T01:02:04.513Z,3.60
2018-01-18T01:04:32.805Z,3.00
2018-01-18T01:07:02.171Z,2.80
2018-01-18T01:09:30.126Z,2.90
2018-01-18T01:11:58.797Z,3.33
2018-01-18T01:14:26.990Z,4.43
2018-01-18T01:16:57.787Z,2.40
2018-01-18T01:19:35.978Z,2.63
2018-01-18T01:24:46.148Z,2.20
2018-01-18T01:27:20.386Z,2.80
2018-01-18T01:29:52.137Z,2.67
2018-01-18T01:32:22.200Z,2.83
2018-01-18T01:34:52.802Z,2.50
2018-01-18T01:37:31.271Z,3.07
2018-01-18T01:40:09.917Z,2.70
2018-01-18T01:42:39.458Z,1.60
2018-01-18T01:45:08.110Z,2.40
2018-01-18T01:47:40.337Z,2.37
2018-01-18T01:50:10.607Z,2.53
2018-01-18T01:55:14.328Z,1.93
2018-01-18T01:57:43.364Z,2.07
2018-01-18T02:00:11.528Z,2.20
2018-01-18T02:02:40.230Z,1.87
2018-01-18T02:07:51.581Z,2.13
2018-01-18T02:10:20.406Z,3.07
2018-01-18T02:12:51.206Z,2.07
2018-01-18T02:15:23.935Z,2.40
2018-01-18T02:17:59.501Z,1.87
2018-01-18T02:20:29.872Z,2.60
2018-01-18T02:22:58.102Z,3.63
2018-01-18T02:25:26.746Z,2.27
2018-01-18T02:27:55.309Z,3.07
2018-01-18T02:33:00.153Z,1.93
2018-01-18T02:35:32.614Z,3.20
2018-01-18T02:40:34.576Z,3.33
2018-01-18T02:43:03.068Z,3.20
2018-01-18T02:45:32.380Z,3.50
2018-01-18T02:48:01.145Z,2.73
2018-01-18T02:50:29.359Z,1.60
2018-01-18T02:53:00.204Z,2.40
2018-01-18T02:55:29.106Z,3.67
2018-01-18T02:57:59.906Z,2.53
2018-01-18T03:00:28.085Z,3.83
2018-01-18T03:02:56.002Z,3.20
2018-01-18T03:05:34.536Z,4.40
2018-01-18T03:08:03.797Z,3.97
2018-01-18T03:10:31.628Z,4.40
2018-01-18T03:13:00.672Z,3.23
2018-01-18T03:15:28.496Z,3.83
2018-01-18T03:17:58.020Z,3.33
2018-01-18T03:20:36.510Z,3.60
2018-01-18T03:23:04.600Z,3.40
2018-01-18T03:25:35.371Z,4.50
2018-01-18T03:28:06.182Z,3.33
2018-01-18T03:30:35.142Z,4.20
2018-01-18T03:33:04.461Z,3.80
2018-01-18T03:35:32.292Z,4.13
2018-01-18T03:38:00.860Z,4.60
2018-01-18T03:40:28.750Z,3.40
2018-01-18T03:42:56.576Z,3.87
2018-01-18T03:45:24.813Z,4.53
2018-01-18T03:47:53.729Z,3.43
2018-01-18T03:50:23.693Z,4.03
2018-01-18T03:52:59.437Z,3.57
2018-01-18T03:55:34.694Z,3.90
2018-01-18T03:58:04.659Z,4.17
2018-01-18T04:00:38.686Z,3.47
2018-01-18T04:03:06.822Z,3.47
2018-01-18T04:05:39.643Z,2.97
2018-01-18T04:08:09.418Z,3.60
2018-01-18T04:10:42.108Z,3.10
2018-01-18T04:13:14.324Z,3.40
2018-01-18T04:15:47.908Z,3.13
2018-01-18T04:18:18.485Z,2.83
2018-01-18T04:20:51.715Z,3.40
2018-01-18T07:20:13.507Z,5.10
2018-01-18T07:28:51.454Z,5.40
2018-01-18T07:37:25.910Z,7.73
2018-01-18T07:40:01.590Z,9.60
2018-01-18T07:42:32.973Z,8.97
2018-01-18T07:45:04.070Z,8.70
2018-01-18T07:47:37.782Z,9.17
2018-01-18T07:50:22.062Z,10.53
2018-01-18T07:53:02.165Z,9.43
2018-01-18T08:34:15.819Z,2.00
2018-01-18T08:36:46.975Z,3.20
2018-01-18T08:39:39.168Z,3.07
2018-01-18T08:45:17.162Z,2.83
2018-01-18T09:25:18.794Z,2.17
2018-01-18T09:28:06.023Z,2.30
